sensor_id;sensor_type;location;lat;lon;timestamp;temperature;humidity
37310;DHT22;23195;47.744;7.358;2023-04-03T00:01:15;5.50;99.90
37310;DHT22;23195;47.744;7.358;2023-04-03T00:03:41;5.40;99.90
37310;DHT22;23195;47.744;7.358;2023-04-03T00:06:07;5.30;99.90
37310;DHT22;23195;47.744;7.358;2023-04-03T00:08:39;5.30;99.90
37310;DHT22;23195;47.744;7.358;2023-04-03T00:11:05;5.10;99.90
37310;DHT22;23195;47.744;7.358;2023-04-03T00:13:35;5.10;99.90
37310;DHT22;23195;47.744;7.358;2023-04-03T00:16:01;5.10;99.90
37310;DHT22;23195;47.744;7.358;2023-04-03T00:18:40;5.00;99.90
37310;DHT22;23195;47.744;7.358;2023-04-03T00:21:10;5.00;99.90
37310;DHT22;23195;47.744;7.358;2023-04-03T00:23:40;5.00;99.90
37310;DHT22;23195;47.744;7.358;2023-04-03T00:26:09;5.00;99.90
37310;DHT22;23195;47.744;7.358;2023-04-03T00:28:34;4.90;99.90
37310;DHT22;23195;47.744;7.358;2023-04-03T00:31:03;4.90;99.90
37310;DHT22;23195;47.744;7.358;2023-04-03T00:33:29;4.80;99.90
37310;DHT22;23195;47.744;7.358;2023-04-03T00:35:55;4.90;99.90
37310;DHT22;23195;47.744;7.358;2023-04-03T00:38:32;4.90;99.90
37310;DHT22;23195;47.744;7.358;2023-04-03T00:40:58;4.80;99.90
37310;DHT22;23195;47.744;7.358;2023-04-03T00:43:25;4.80;99.90
37310;DHT22;23195;47.744;7.358;2023-04-03T00:45:54;4.80;99.90
37310;DHT22;23195;47.744;7.358;2023-04-03T00:48:25;4.70;99.90
37310;DHT22;23195;47.744;7.358;2023-04-03T00:50:59;4.60;99.90
37310;DHT22;23195;47.744;7.358;2023-04-03T00:53:30;4.70;99.90
37310;DHT22;23195;47.744;7.358;2023-04-03T00:55:57;4.80;99.90
37310;DHT22;23195;47.744;7.358;2023-04-03T00:58:31;4.70;99.90
37310;DHT22;23195;47.744;7.358;2023-04-03T01:01:03;4.60;99.90
37310;DHT22;23195;47.744;7.358;2023-04-03T01:03:30;4.70;99.90
37310;DHT22;23195;47.744;7.358;2023-04-03T01:06:00;4.00;99.90
37310;DHT22;23195;47.744;7.358;2023-04-03T01:08:29;5.30;99.90
37310;DHT22;23195;47.744;7.358;2023-04-03T01:11:06;3.80;99.90
37310;DHT22;23195;47.744;7.358;2023-04-03T01:13:33;4.60;99.90
37310;DHT22;23195;47.744;7.358;2023-04-03T01:16:03;4.60;99.90
37310;DHT22;23195;47.744;7.358;2023-04-03T01:18:35;4.60;99.90
37310;DHT22;23195;47.744;7.358;2023-04-03T01:21:28;4.60;99.90
37310;DHT22;23195;47.744;7.358;2023-04-03T01:26:46;4.70;99.90
37310;DHT22;23195;47.744;7.358;2023-04-03T01:29:19;4.70;99.90
37310;DHT22;23195;47.744;7.358;2023-04-03T01:31:49;4.80;99.90
37310;DHT22;23195;47.744;7.358;2023-04-03T01:34:17;4.70;99.90
37310;DHT22;23195;47.744;7.358;2023-04-03T01:36:43;4.80;99.90
37310;DHT22;23195;47.744;7.358;2023-04-03T01:39:09;4.80;99.90
37310;DHT22;23195;47.744;7.358;2023-04-03T01:41:35;4.80;99.90
37310;DHT22;23195;47.744;7.358;2023-04-03T01:44:01;4.70;99.90
37310;DHT22;23195;47.744;7.358;2023-04-03T01:46:26;4.80;99.90
37310;DHT22;23195;47.744;7.358;2023-04-03T01:48:52;4.70;99.90
37310;DHT22;23195;47.744;7.358;2023-04-03T01:51:18;4.80;99.90
37310;DHT22;23195;47.744;7.358;2023-04-03T01:53:44;4.80;99.90
37310;DHT22;23195;47.744;7.358;2023-04-03T01:56:12;4.80;99.90
37310;DHT22;23195;47.744;7.358;2023-04-03T01:58:38;4.70;99.90
37310;DHT22;23195;47.744;7.358;2023-04-03T02:01:07;4.60;99.90
37310;DHT22;23195;47.744;7.358;2023-04-03T02:03:33;4.60;99.90
37310;DHT22;23195;47.744;7.358;2023-04-03T02:06:00;4.70;99.90
37310;DHT22;23195;47.744;7.358;2023-04-03T02:08:26;4.70;99.90
37310;DHT22;23195;47.744;7.358;2023-04-03T02:10:59;4.60;99.90
37310;DHT22;23195;47.744;7.358;2023-04-03T02:13:25;4.60;99.90
37310;DHT22;23195;47.744;7.358;2023-04-03T02:15:54;4.70;99.90
37310;DHT22;23195;47.744;7.358;2023-04-03T02:18:20;4.70;99.90
37310;DHT22;23195;47.744;7.358;2023-04-03T02:20:46;4.70;99.90
37310;DHT22;23195;47.744;7.358;2023-04-03T02:23:15;4.70;99.90
37310;DHT22;23195;47.744;7.358;2023-04-03T02:25:43;4.70;99.90
37310;DHT22;23195;47.744;7.358;2023-04-03T02:28:12;4.70;99.90
37310;DHT22;23195;47.744;7.358;2023-04-03T02:30:37;4.60;99.90
37310;DHT22;23195;47.744;7.358;2023-04-03T02:33:03;4.60;99.90
37310;DHT22;23195;47.744;7.358;2023-04-03T02:35:33;4.60;99.90
37310;DHT22;23195;47.744;7.358;2023-04-03T02:37:59;4.60;99.90
37310;DHT22;23195;47.744;7.358;2023-04-03T02:40:28;4.60;99.90
37310;DHT22;23195;47.744;7.358;2023-04-03T02:42:53;4.60;99.90
37310;DHT22;23195;47.744;7.358;2023-04-03T02:45:19;4.60;99.90
37310;DHT22;23195;47.744;7.358;2023-04-03T02:47:45;4.50;99.90
37310;DHT22;23195;47.744;7.358;2023-04-03T02:50:13;4.50;99.90
37310;DHT22;23195;47.744;7.358;2023-04-03T02:52:39;4.50;99.90
37310;DHT22;23195;47.744;7.358;2023-04-03T02:55:05;3.10;99.90
37310;DHT22;23195;47.744;7.358;2023-04-03T02:57:31;4.50;99.90
37310;DHT22;23195;47.744;7.358;2023-04-03T02:59:57;4.50;99.90
37310;DHT22;23195;47.744;7.358;2023-04-03T03:02:23;4.50;99.90
37310;DHT22;23195;47.744;7.358;2023-04-03T03:04:58;4.50;99.90
37310;DHT22;23195;47.744;7.358;2023-04-03T03:07:24;4.50;99.90
37310;DHT22;23195;47.744;7.358;2023-04-03T03:10:00;4.50;99.90
37310;DHT22;23195;47.744;7.358;2023-04-03T03:12:29;4.50;99.90
37310;DHT22;23195;47.744;7.358;2023-04-03T03:14:58;3.20;99.90
37310;DHT22;23195;47.744;7.358;2023-04-03T03:17:23;4.40;99.90
37310;DHT22;23195;47.744;7.358;2023-04-03T03:19:49;4.40;99.90
37310;DHT22;23195;47.744;7.358;2023-04-03T03:22:19;4.40;99.90
37310;DHT22;23195;47.744;7.358;2023-04-03T03:24:47;4.50;99.90
37310;DHT22;23195;47.744;7.358;2023-04-03T03:27:20;4.40;99.90
37310;DHT22;23195;47.744;7.358;2023-04-03T03:29:46;4.50;99.90
37310;DHT22;23195;47.744;7.358;2023-04-03T03:32:21;4.50;99.90
37310;DHT22;23195;47.744;7.358;2023-04-03T03:34:47;4.50;99.90
37310;DHT22;23195;47.744;7.358;2023-04-03T03:37:13;4.50;99.90
37310;DHT22;23195;47.744;7.358;2023-04-03T03:39:39;4.50;99.90
37310;DHT22;23195;47.744;7.358;2023-04-03T03:42:10;4.60;99.90
37310;DHT22;23195;47.744;7.358;2023-04-03T03:44:38;4.50;99.90
37310;DHT22;23195;47.744;7.358;2023-04-03T03:47:07;4.50;99.90
37310;DHT22;23195;47.744;7.358;2023-04-03T03:49:36;4.50;99.90
37310;DHT22;23195;47.744;7.358;2023-04-03T03:52:02;4.50;99.90
37310;DHT22;23195;47.744;7.358;2023-04-03T03:54:31;4.50;99.90
37310;DHT22;23195;47.744;7.358;2023-04-03T03:57:07;4.60;99.90
37310;DHT22;23195;47.744;7.358;2023-04-03T03:59:32;4.50;99.90
37310;DHT22;23195;47.744;7.358;2023-04-03T04:02:05;4.50;99.90
37310;DHT22;23195;47.744;7.358;2023-04-03T04:04:32;4.50;99.90
37310;DHT22;23195;47.744;7.358;2023-04-03T04:06:57;4.50;99.90
37310;DHT22;23195;47.744;7.358;2023-04-03T04:09:32;4.50;99.90
37310;DHT22;23195;47.744;7.358;2023-04-03T04:11:58;4.50;99.90
37310;DHT22;23195;47.744;7.358;2023-04-03T04:14:24;4.50;99.90
37310;DHT22;23195;47.744;7.358;2023-04-03T04:16:57;4.50;99.90
37310;DHT22;23195;47.744;7.358;2023-04-03T04:19:23;4.50;99.90
37310;DHT22;23195;47.744;7.358;2023-04-03T04:21:54;4.40;99.90
37310;DHT22;23195;47.744;7.358;2023-04-03T04:24:20;4.50;99.90
37310;DHT22;23195;47.744;7.358;2023-04-03T04:26:56;4.50;99.90
37310;DHT22;23195;47.744;7.358;2023-04-03T04:29:22;4.40;99.90
37310;DHT22;23195;47.744;7.358;2023-04-03T04:31:51;4.40;99.90
37310;DHT22;23195;47.744;7.358;2023-04-03T04:34:19;4.50;99.90
37310;DHT22;23195;47.744;7.358;2023-04-03T04:36:45;4.40;99.90
37310;DHT22;23195;47.744;7.358;2023-04-03T04:39:22;4.40;99.90
37310;DHT22;23195;47.744;7.358;2023-04-03T04:41:50;4.40;99.90
37310;DHT22;23195;47.744;7.358;2023-04-03T04:44:16;4.40;99.90
37310;DHT22;23195;47.744;7.358;2023-04-03T04:46:42;4.40;99.90
37310;DHT22;23195;47.744;7.358;2023-04-03T04:49:10;4.30;99.90
37310;DHT22;23195;47.744;7.358;2023-04-03T04:51:36;4.30;99.90
37310;DHT22;23195;47.744;7.358;2023-04-03T04:54:02;4.40;99.90
37310;DHT22;23195;47.744;7.358;2023-04-03T04:56:37;4.40;99.90
37310;DHT22;23195;47.744;7.358;2023-04-03T04:59:12;4.30;99.90
37310;DHT22;23195;47.744;7.358;2023-04-03T05:01:38;4.30;99.90
37310;DHT22;23195;47.744;7.358;2023-04-03T05:04:06;4.30;99.90
37310;DHT22;23195;47.744;7.358;2023-04-03T05:06:34;4.30;99.90
37310;DHT22;23195;47.744;7.358;2023-04-03T05:09:11;4.90;99.90
37310;DHT22;23195;47.744;7.358;2023-04-03T05:11:50;4.30;99.90
37310;DHT22;23195;47.744;7.358;2023-04-03T05:14:16;4.40;99.90
37310;DHT22;23195;47.744;7.358;2023-04-03T05:16:44;4.50;99.90
37310;DHT22;23195;47.744;7.358;2023-04-03T05:19:21;4.30;99.90
37310;DHT22;23195;47.744;7.358;2023-04-03T05:22:04;3.80;99.90
37310;DHT22;23195;47.744;7.358;2023-04-03T05:24:40;4.40;99.90
37310;DHT22;23195;47.744;7.358;2023-04-03T05:27:06;4.30;99.90
37310;DHT22;23195;47.744;7.358;2023-04-03T05:29:34;4.40;99.90
37310;DHT22;23195;47.744;7.358;2023-04-03T05:32:03;4.40;99.90
37310;DHT22;23195;47.744;7.358;2023-04-03T05:34:31;4.40;99.90
37310;DHT22;23195;47.744;7.358;2023-04-03T05:36:59;4.30;99.90
37310;DHT22;23195;47.744;7.358;2023-04-03T05:39:35;4.30;99.90
37310;DHT22;23195;47.744;7.358;2023-04-03T05:42:06;4.30;99.90
37310;DHT22;23195;47.744;7.358;2023-04-03T05:44:39;4.20;99.90
37310;DHT22;23195;47.744;7.358;2023-04-03T05:47:14;4.20;99.90
37310;DHT22;23195;47.744;7.358;2023-04-03T05:49:42;4.10;99.90
37310;DHT22;23195;47.744;7.358;2023-04-03T05:52:31;4.10;99.90
37310;DHT22;23195;47.744;7.358;2023-04-03T05:55:00;4.10;99.90
37310;DHT22;23195;47.744;7.358;2023-04-03T05:57:29;4.10;99.90
37310;DHT22;23195;47.744;7.358;2023-04-03T05:59:54;4.20;99.90
37310;DHT22;23195;47.744;7.358;2023-04-03T06:02:31;4.20;99.90
37310;DHT22;23195;47.744;7.358;2023-04-03T06:05:01;4.10;99.90
37310;DHT22;23195;47.744;7.358;2023-04-03T06:07:30;4.10;99.90
37310;DHT22;23195;47.744;7.358;2023-04-03T06:10:02;4.20;99.90
37310;DHT22;23195;47.744;7.358;2023-04-03T06:12:28;4.20;99.90
37310;DHT22;23195;47.744;7.358;2023-04-03T06:14:56;4.20;99.90
37310;DHT22;23195;47.744;7.358;2023-04-03T06:17:22;4.20;99.90
37310;DHT22;23195;47.744;7.358;2023-04-03T06:19:49;4.20;99.90
37310;DHT22;23195;47.744;7.358;2023-04-03T06:22:15;4.20;99.90
37310;DHT22;23195;47.744;7.358;2023-04-03T06:24:41;4.20;99.90
37310;DHT22;23195;47.744;7.358;2023-04-03T06:27:07;4.20;99.90
37310;DHT22;23195;47.744;7.358;2023-04-03T06:29:35;4.30;99.90
37310;DHT22;23195;47.744;7.358;2023-04-03T06:32:02;4.30;99.90
37310;DHT22;23195;47.744;7.358;2023-04-03T06:34:28;4.30;99.90
37310;DHT22;23195;47.744;7.358;2023-04-03T06:36:54;4.20;99.90
37310;DHT22;23195;47.744;7.358;2023-04-03T06:39:22;4.10;99.90
37310;DHT22;23195;47.744;7.358;2023-04-03T06:41:51;4.10;99.90
37310;DHT22;23195;47.744;7.358;2023-04-03T06:44:17;4.00;99.90
37310;DHT22;23195;47.744;7.358;2023-04-03T06:46:45;4.00;99.90
37310;DHT22;23195;47.744;7.358;2023-04-03T06:49:14;4.00;99.90
37310;DHT22;23195;47.744;7.358;2023-04-03T06:51:43;4.00;99.90
37310;DHT22;23195;47.744;7.358;2023-04-03T06:54:09;4.10;99.90
37310;DHT22;23195;47.744;7.358;2023-04-03T06:56:45;4.10;99.90
37310;DHT22;23195;47.744;7.358;2023-04-03T06:59:14;4.10;99.90
37310;DHT22;23195;47.744;7.358;2023-04-03T07:01:42;4.10;99.90
37310;DHT22;23195;47.744;7.358;2023-04-03T07:04:08;4.20;99.90
37310;DHT22;23195;47.744;7.358;2023-04-03T07:06:39;4.10;99.90
37310;DHT22;23195;47.744;7.358;2023-04-03T07:09:17;4.10;99.90
37310;DHT22;23195;47.744;7.358;2023-04-03T07:11:44;3.50;99.90
37310;DHT22;23195;47.744;7.358;2023-04-03T07:14:15;4.00;99.90
37310;DHT22;23195;47.744;7.358;2023-04-03T07:16:53;4.10;99.90
37310;DHT22;23195;47.744;7.358;2023-04-03T07:19:21;3.90;99.90
37310;DHT22;23195;47.744;7.358;2023-04-03T07:22:15;4.10;99.90
37310;DHT22;23195;47.744;7.358;2023-04-03T07:24:44;4.20;99.90
37310;DHT22;23195;47.744;7.358;2023-04-03T07:27:10;4.30;99.90
37310;DHT22;23195;47.744;7.358;2023-04-03T07:29:45;4.30;99.90
37310;DHT22;23195;47.744;7.358;2023-04-03T07:32:15;4.30;99.90
37310;DHT22;23195;47.744;7.358;2023-04-03T07:34:41;3.80;99.90
37310;DHT22;23195;47.744;7.358;2023-04-03T07:37:14;4.40;99.90
37310;DHT22;23195;47.744;7.358;2023-04-03T07:39:50;4.50;99.90
37310;DHT22;23195;47.744;7.358;2023-04-03T07:42:18;4.50;99.90
37310;DHT22;23195;47.744;7.358;2023-04-03T07:44:46;4.50;99.90
37310;DHT22;23195;47.744;7.358;2023-04-03T07:47:18;4.50;99.90
37310;DHT22;23195;47.744;7.358;2023-04-03T07:49:46;4.60;99.90
37310;DHT22;23195;47.744;7.358;2023-04-03T07:52:12;4.60;99.90
37310;DHT22;23195;47.744;7.358;2023-04-03T07:54:43;4.60;99.90
37310;DHT22;23195;47.744;7.358;2023-04-03T07:57:09;4.60;99.90
37310;DHT22;23195;47.744;7.358;2023-04-03T07:59:37;4.40;99.90
37310;DHT22;23195;47.744;7.358;2023-04-03T08:02:09;4.60;99.90
37310;DHT22;23195;47.744;7.358;2023-04-03T08:04:35;4.60;99.90
37310;DHT22;23195;47.744;7.358;2023-04-03T08:07:01;4.90;99.90
37310;DHT22;23195;47.744;7.358;2023-04-03T08:09:30;4.80;99.90
37310;DHT22;23195;47.744;7.358;2023-04-03T08:11:57;4.90;99.90
37310;DHT22;23195;47.744;7.358;2023-04-03T08:14:23;5.00;99.90
37310;DHT22;23195;47.744;7.358;2023-04-03T08:16:49;5.10;99.90
37310;DHT22;23195;47.744;7.358;2023-04-03T08:19:15;5.20;99.90
37310;DHT22;23195;47.744;7.358;2023-04-03T08:21:46;5.40;99.90
37310;DHT22;23195;47.744;7.358;2023-04-03T08:24:12;5.60;99.90
37310;DHT22;23195;47.744;7.358;2023-04-03T08:26:38;5.70;99.90
37310;DHT22;23195;47.744;7.358;2023-04-03T08:29:07;5.80;99.90
37310;DHT22;23195;47.744;7.358;2023-04-03T08:31:32;5.90;99.90
37310;DHT22;23195;47.744;7.358;2023-04-03T08:33:58;6.70;99.90
37310;DHT22;23195;47.744;7.358;2023-04-03T08:36:28;6.10;99.90
37310;DHT22;23195;47.744;7.358;2023-04-03T08:38:58;6.10;99.90
37310;DHT22;23195;47.744;7.358;2023-04-03T08:41:40;6.10;99.90
37310;DHT22;23195;47.744;7.358;2023-04-03T08:52:09;6.80;99.90
37310;DHT22;23195;47.744;7.358;2023-04-03T08:54:57;6.80;99.90
37310;DHT22;23195;47.744;7.358;2023-04-03T08:57:40;7.00;99.90
37310;DHT22;23195;47.744;7.358;2023-04-03T09:00:24;7.20;99.90
37310;DHT22;23195;47.744;7.358;2023-04-03T09:02:56;7.40;99.90
37310;DHT22;23195;47.744;7.358;2023-04-03T09:22:41;8.40;99.90
37310;DHT22;23195;47.744;7.358;2023-04-03T09:25:17;8.60;99.90
37310;DHT22;23195;47.744;7.358;2023-04-03T09:27:47;8.60;99.90
37310;DHT22;23195;47.744;7.358;2023-04-03T09:30:18;8.60;99.90
37310;DHT22;23195;47.744;7.358;2023-04-03T09:32:48;8.60;99.90
37310;DHT22;23195;47.744;7.358;2023-04-03T09:35:28;8.00;99.90
37310;DHT22;23195;47.744;7.358;2023-04-03T09:40:45;8.80;99.90
37310;DHT22;23195;47.744;7.358;2023-04-03T09:46:33;8.80;99.90
37310;DHT22;23195;47.744;7.358;2023-04-03T09:49:11;8.10;99.90
37310;DHT22;23195;47.744;7.358;2023-04-03T09:51:43;8.20;99.90
37310;DHT22;23195;47.744;7.358;2023-04-03T09:54:37;8.20;99.90
37310;DHT22;23195;47.744;7.358;2023-04-03T09:57:11;8.30;99.90
37310;DHT22;23195;47.744;7.358;2023-04-03T09:59:46;8.50;99.90
37310;DHT22;23195;47.744;7.358;2023-04-03T10:02:37;8.60;99.90
37310;DHT22;23195;47.744;7.358;2023-04-03T10:05:39;8.60;99.90
37310;DHT22;23195;47.744;7.358;2023-04-03T10:11:14;8.40;99.90
37310;DHT22;23195;47.744;7.358;2023-04-03T10:13:52;8.50;99.90
37310;DHT22;23195;47.744;7.358;2023-04-03T10:16:46;8.30;99.90
37310;DHT22;23195;47.744;7.358;2023-04-03T10:19:36;8.30;99.90
37310;DHT22;23195;47.744;7.358;2023-04-03T10:22:25;8.10;99.90
37310;DHT22;23195;47.744;7.358;2023-04-03T10:30:37;8.00;99.90
37310;DHT22;23195;47.744;7.358;2023-04-03T10:50:29;7.80;99.90
37310;DHT22;23195;47.744;7.358;2023-04-03T10:53:03;7.80;99.90
37310;DHT22;23195;47.744;7.358;2023-04-03T10:58:32;7.90;99.90
37310;DHT22;23195;47.744;7.358;2023-04-03T11:01:06;8.00;99.90
37310;DHT22;23195;47.744;7.358;2023-04-03T11:03:36;8.00;99.90
37310;DHT22;23195;47.744;7.358;2023-04-03T11:06:08;8.00;99.90
37310;DHT22;23195;47.744;7.358;2023-04-03T11:08:50;8.10;99.90
37310;DHT22;23195;47.744;7.358;2023-04-03T11:11:31;8.10;99.90
37310;DHT22;23195;47.744;7.358;2023-04-03T11:14:18;8.10;99.90
37310;DHT22;23195;47.744;7.358;2023-04-03T11:17:04;8.10;99.90
37310;DHT22;23195;47.744;7.358;2023-04-03T11:20:24;8.20;99.90
37310;DHT22;23195;47.744;7.358;2023-04-03T11:23:09;8.60;99.90
37310;DHT22;23195;47.744;7.358;2023-04-03T11:25:51;8.80;99.90
37310;DHT22;23195;47.744;7.358;2023-04-03T11:28:24;8.90;99.90
37310;DHT22;23195;47.744;7.358;2023-04-03T11:31:07;9.10;99.90
37310;DHT22;23195;47.744;7.358;2023-04-03T11:36:38;9.10;99.90
37310;DHT22;23195;47.744;7.358;2023-04-03T11:39:34;9.60;99.90
37310;DHT22;23195;47.744;7.358;2023-04-03T11:47:52;9.90;99.90
37310;DHT22;23195;47.744;7.358;2023-04-03T11:50:38;9.80;99.90
37310;DHT22;23195;47.744;7.358;2023-04-03T12:16:27;9.50;99.70
37310;DHT22;23195;47.744;7.358;2023-04-03T12:35:29;9.50;99.40
37310;DHT22;23195;47.744;7.358;2023-04-03T12:44:01;9.30;98.70
37310;DHT22;23195;47.744;7.358;2023-04-03T12:47:15;9.40;98.30
37310;DHT22;23195;47.744;7.358;2023-04-03T12:49:46;9.40;98.40
37310;DHT22;23195;47.744;7.358;2023-04-03T12:52:23;9.60;98.00
37310;DHT22;23195;47.744;7.358;2023-04-03T12:55:07;9.60;97.70
37310;DHT22;23195;47.744;7.358;2023-04-03T12:57:35;9.70;97.70
37310;DHT22;23195;47.744;7.358;2023-04-03T13:00:36;9.70;97.50
37310;DHT22;23195;47.744;7.358;2023-04-03T13:03:26;9.70;97.50
37310;DHT22;23195;47.744;7.358;2023-04-03T13:06:00;9.80;96.90
37310;DHT22;23195;47.744;7.358;2023-04-03T13:08:29;9.80;97.70
37310;DHT22;23195;47.744;7.358;2023-04-03T13:11:10;9.80;97.50
37310;DHT22;23195;47.744;7.358;2023-04-03T13:14:13;10.00;97.00
37310;DHT22;23195;47.744;7.358;2023-04-03T13:16:40;10.20;97.40
37310;DHT22;23195;47.744;7.358;2023-04-03T13:19:19;10.20;96.40
37310;DHT22;23195;47.744;7.358;2023-04-03T13:21:48;10.40;96.60
37310;DHT22;23195;47.744;7.358;2023-04-03T13:24:15;9.70;96.20
37310;DHT22;23195;47.744;7.358;2023-04-03T13:26:44;9.70;96.00
37310;DHT22;23195;47.744;7.358;2023-04-03T13:29:25;9.70;96.70
37310;DHT22;23195;47.744;7.358;2023-04-03T13:31:56;9.90;97.10
37310;DHT22;23195;47.744;7.358;2023-04-03T13:34:51;10.10;96.30
37310;DHT22;23195;47.744;7.358;2023-04-03T13:37:26;9.90;95.90
37310;DHT22;23195;47.744;7.358;2023-04-03T13:39:59;9.70;95.90
37310;DHT22;23195;47.744;7.358;2023-04-03T13:42:31;9.80;96.10
37310;DHT22;23195;47.744;7.358;2023-04-03T13:47:44;9.60;97.50
37310;DHT22;23195;47.744;7.358;2023-04-03T13:50:23;9.60;97.80
37310;DHT22;23195;47.744;7.358;2023-04-03T13:55:31;9.60;98.00
37310;DHT22;23195;47.744;7.358;2023-04-03T14:03:42;9.40;96.90
37310;DHT22;23195;47.744;7.358;2023-04-03T14:06:16;9.20;97.50
37310;DHT22;23195;47.744;7.358;2023-04-03T14:08:43;9.60;97.20
37310;DHT22;23195;47.744;7.358;2023-04-03T14:13:51;9.50;96.80
37310;DHT22;23195;47.744;7.358;2023-04-03T14:16:28;9.60;96.40
37310;DHT22;23195;47.744;7.358;2023-04-03T14:18:55;9.50;96.70
37310;DHT22;23195;47.744;7.358;2023-04-03T14:21:21;9.60;97.00
37310;DHT22;23195;47.744;7.358;2023-04-03T14:23:47;9.50;97.20
37310;DHT22;23195;47.744;7.358;2023-04-03T14:26:33;9.40;97.00
37310;DHT22;23195;47.744;7.358;2023-04-03T14:29:10;9.40;97.90
37310;DHT22;23195;47.744;7.358;2023-04-03T14:31:54;9.50;97.30
37310;DHT22;23195;47.744;7.358;2023-04-03T14:34:23;9.30;97.70
37310;DHT22;23195;47.744;7.358;2023-04-03T14:36:56;9.10;97.60
37310;DHT22;23195;47.744;7.358;2023-04-03T14:39:22;9.30;97.30
37310;DHT22;23195;47.744;7.358;2023-04-03T14:42:01;9.30;97.30
37310;DHT22;23195;47.744;7.358;2023-04-03T14:44:27;9.30;97.40
37310;DHT22;23195;47.744;7.358;2023-04-03T14:47:01;9.30;97.90
37310;DHT22;23195;47.744;7.358;2023-04-03T14:49:36;9.40;97.20
37310;DHT22;23195;47.744;7.358;2023-04-03T14:52:02;9.20;97.10
37310;DHT22;23195;47.744;7.358;2023-04-03T14:54:31;9.10;97.70
37310;DHT22;23195;47.744;7.358;2023-04-03T14:57:00;9.20;97.30
37310;DHT22;23195;47.744;7.358;2023-04-03T14:59:28;9.10;97.60
37310;DHT22;23195;47.744;7.358;2023-04-03T15:01:56;9.30;97.40
37310;DHT22;23195;47.744;7.358;2023-04-03T15:04:33;9.30;97.20
37310;DHT22;23195;47.744;7.358;2023-04-03T15:06:58;9.10;97.70
37310;DHT22;23195;47.744;7.358;2023-04-03T15:09:27;9.10;97.50
37310;DHT22;23195;47.744;7.358;2023-04-03T15:12:03;8.30;97.30
37310;DHT22;23195;47.744;7.358;2023-04-03T15:14:29;8.90;97.50
37310;DHT22;23195;47.744;7.358;2023-04-03T15:16:59;8.80;97.70
37310;DHT22;23195;47.744;7.358;2023-04-03T15:19:28;8.90;97.50
37310;DHT22;23195;47.744;7.358;2023-04-03T15:21:56;8.80;97.20
37310;DHT22;23195;47.744;7.358;2023-04-03T15:24:30;8.80;96.30
37310;DHT22;23195;47.744;7.358;2023-04-03T15:30:06;8.60;96.70
37310;DHT22;23195;47.744;7.358;2023-04-03T15:32:32;8.60;97.10
37310;DHT22;23195;47.744;7.358;2023-04-03T15:35:20;7.80;97.30
37310;DHT22;23195;47.744;7.358;2023-04-03T15:37:52;8.80;97.50
37310;DHT22;23195;47.744;7.358;2023-04-03T15:40:18;8.50;97.20
37310;DHT22;23195;47.744;7.358;2023-04-03T15:43:04;8.70;97.60
37310;DHT22;23195;47.744;7.358;2023-04-03T15:45:38;8.80;97.40
37310;DHT22;23195;47.744;7.358;2023-04-03T15:48:07;8.80;96.50
37310;DHT22;23195;47.744;7.358;2023-04-03T15:50:34;8.40;96.60
37310;DHT22;23195;47.744;7.358;2023-04-03T15:56:13;8.70;96.80
37310;DHT22;23195;47.744;7.358;2023-04-03T15:58:39;8.50;96.80
37310;DHT22;23195;47.744;7.358;2023-04-03T16:01:11;8.20;97.00
37310;DHT22;23195;47.744;7.358;2023-04-03T16:03:43;8.40;97.10
37310;DHT22;23195;47.744;7.358;2023-04-03T16:06:19;8.20;97.00
37310;DHT22;23195;47.744;7.358;2023-04-03T16:08:48;8.20;96.90
37310;DHT22;23195;47.744;7.358;2023-04-03T16:11:14;8.10;96.80
37310;DHT22;23195;47.744;7.358;2023-04-03T16:13:40;8.10;97.20
37310;DHT22;23195;47.744;7.358;2023-04-03T16:16:10;8.20;97.20
37310;DHT22;23195;47.744;7.358;2023-04-03T16:18:36;8.30;96.90
37310;DHT22;23195;47.744;7.358;2023-04-03T16:21:19;8.30;97.20
37310;DHT22;23195;47.744;7.358;2023-04-03T16:23:45;8.30;97.20
37310;DHT22;23195;47.744;7.358;2023-04-03T16:29:07;8.00;97.80
37310;DHT22;23195;47.744;7.358;2023-04-03T16:31:35;8.00;97.40
37310;DHT22;23195;47.744;7.358;2023-04-03T16:34:14;8.00;97.60
37310;DHT22;23195;47.744;7.358;2023-04-03T16:36:41;8.00;97.50
37310;DHT22;23195;47.744;7.358;2023-04-03T16:39:09;8.00;97.40
37310;DHT22;23195;47.744;7.358;2023-04-03T16:41:35;8.00;97.50
37310;DHT22;23195;47.744;7.358;2023-04-03T16:44:01;8.00;97.20
37310;DHT22;23195;47.744;7.358;2023-04-03T16:46:51;8.00;96.90
37310;DHT22;23195;47.744;7.358;2023-04-03T16:49:17;8.00;97.00
37310;DHT22;23195;47.744;7.358;2023-04-03T16:52:06;8.00;96.80
37310;DHT22;23195;47.744;7.358;2023-04-03T16:54:32;7.90;96.70
37310;DHT22;23195;47.744;7.358;2023-04-03T16:56:58;8.30;96.70
37310;DHT22;23195;47.744;7.358;2023-04-03T16:59:24;7.90;96.80
37310;DHT22;23195;47.744;7.358;2023-04-03T17:01:50;9.30;97.30
37310;DHT22;23195;47.744;7.358;2023-04-03T17:04:18;7.80;96.50
37310;DHT22;23195;47.744;7.358;2023-04-03T17:06:44;7.80;96.60
37310;DHT22;23195;47.744;7.358;2023-04-03T17:09:10;7.80;96.80
37310;DHT22;23195;47.744;7.358;2023-04-03T17:11:37;7.90;96.90
37310;DHT22;23195;47.744;7.358;2023-04-03T17:14:06;7.80;96.50
37310;DHT22;23195;47.744;7.358;2023-04-03T17:16:34;7.70;96.50
37310;DHT22;23195;47.744;7.358;2023-04-03T17:19:04;7.70;96.90
37310;DHT22;23195;47.744;7.358;2023-04-03T17:21:31;7.70;97.30
37310;DHT22;23195;47.744;7.358;2023-04-03T17:24:03;7.70;97.40
37310;DHT22;23195;47.744;7.358;2023-04-03T17:26:30;7.70;97.50
37310;DHT22;23195;47.744;7.358;2023-04-03T17:28:55;7.60;97.70
37310;DHT22;23195;47.744;7.358;2023-04-03T17:31:24;7.60;97.70
37310;DHT22;23195;47.744;7.358;2023-04-03T17:33:50;7.50;97.80
37310;DHT22;23195;47.744;7.358;2023-04-03T17:36:16;7.50;98.20
37310;DHT22;23195;47.744;7.358;2023-04-03T17:38:42;7.50;98.30
37310;DHT22;23195;47.744;7.358;2023-04-03T17:41:08;7.60;98.40
37310;DHT22;23195;47.744;7.358;2023-04-03T17:46:51;7.90;98.40
37310;DHT22;23195;47.744;7.358;2023-04-03T17:49:29;7.30;98.30
37310;DHT22;23195;47.744;7.358;2023-04-03T17:52:09;7.10;98.00
37310;DHT22;23195;47.744;7.358;2023-04-03T17:54:35;6.80;97.90
37310;DHT22;23195;47.744;7.358;2023-04-03T17:57:33;7.30;98.00
37310;DHT22;23195;47.744;7.358;2023-04-03T17:59:59;7.20;97.90
37310;DHT22;23195;47.744;7.358;2023-04-03T18:02:36;7.20;97.90
37310;DHT22;23195;47.744;7.358;2023-04-03T18:09:41;6.80;98.10
37310;DHT22;23195;47.744;7.358;2023-04-03T18:12:10;7.20;98.40
37310;DHT22;23195;47.744;7.358;2023-04-03T18:14:37;7.20;98.70
37310;DHT22;23195;47.744;7.358;2023-04-03T18:17:03;7.10;98.30
37310;DHT22;23195;47.744;7.358;2023-04-03T18:19:32;7.10;98.60
37310;DHT22;23195;47.744;7.358;2023-04-03T18:22:05;7.00;98.50
37310;DHT22;23195;47.744;7.358;2023-04-03T18:24:35;7.00;98.60
37310;DHT22;23195;47.744;7.358;2023-04-03T18:27:06;7.00;98.50
37310;DHT22;23195;47.744;7.358;2023-04-03T18:29:36;6.90;98.60
37310;DHT22;23195;47.744;7.358;2023-04-03T18:32:12;7.00;98.40
37310;DHT22;23195;47.744;7.358;2023-04-03T18:34:46;7.00;98.20
37310;DHT22;23195;47.744;7.358;2023-04-03T18:37:12;7.00;97.80
37310;DHT22;23195;47.744;7.358;2023-04-03T18:39:39;6.90;97.80